createdAt,value
2018-05-10T00:02:21.812Z,18.84
2018-05-10T00:04:51.350Z,18.80
2018-05-10T00:07:20.535Z,18.75
2018-05-10T00:16:36.718Z,18.61
2018-05-10T00:19:05.903Z,18.64
2018-05-10T00:21:34.367Z,18.60
2018-05-10T00:24:02.862Z,18.59
2018-05-10T00:26:31.382Z,18.57
2018-05-10T00:28:59.798Z,18.57
2018-05-10T00:31:28.327Z,18.51
2018-05-10T00:33:56.896Z,18.49
2018-05-10T00:36:25.683Z,18.40
2018-05-10T00:38:54.374Z,18.35
2018-05-10T00:41:22.819Z,18.28
2018-05-10T00:43:51.224Z,18.18
2018-05-10T00:46:20.161Z,18.23
2018-05-10T00:48:48.708Z,18.16
2018-05-10T00:51:17.514Z,18.16
2018-05-10T00:53:46.079Z,18.13
2018-05-10T00:56:14.524Z,18.15
2018-05-10T00:58:43.083Z,18.10
2018-05-10T01:01:11.566Z,18.05
2018-05-10T01:03:40.245Z,18.08
2018-05-10T01:06:09.136Z,18.04
2018-05-10T01:08:38.099Z,18.10
2018-05-10T01:11:06.796Z,17.99
2018-05-10T01:13:35.377Z,17.97
2018-05-10T01:16:03.883Z,17.95
2018-05-10T01:18:32.319Z,17.95
2018-05-10T01:21:01.063Z,17.97
2018-05-10T01:23:29.506Z,17.91
2018-05-10T01:25:58.428Z,17.99
2018-05-10T01:28:27.093Z,17.91
2018-05-10T01:30:55.778Z,18.02
2018-05-10T01:33:24.215Z,18.08
2018-05-10T01:36:14.753Z,18.11
2018-05-10T01:38:43.469Z,18.17
2018-05-10T01:41:12.023Z,18.17
2018-05-10T01:43:40.487Z,18.17
2018-05-10T01:46:09.108Z,18.13
2018-05-10T01:48:37.527Z,18.21
2018-05-10T01:51:06.398Z,18.24
2018-05-10T01:53:35.031Z,18.23
2018-05-10T01:56:03.628Z,18.12
2018-05-10T01:58:32.415Z,18.19
2018-05-10T02:01:00.907Z,18.20
2018-05-10T02:03:29.472Z,18.26
2018-05-10T02:05:58.069Z,18.26
2018-05-10T02:11:04.179Z,18.19
2018-05-10T02:13:32.679Z,18.22
2018-05-10T02:16:01.214Z,18.16
2018-05-10T02:18:29.867Z,18.16
2018-05-10T02:20:59.046Z,18.18
2018-05-10T02:23:27.648Z,18.14
2018-05-10T02:26:59.533Z,18.22
2018-05-10T02:29:27.937Z,18.12
2018-05-10T02:31:56.373Z,18.11
2018-05-10T02:34:25.087Z,18.02
2018-05-10T02:36:53.640Z,18.00
2018-05-10T02:39:22.344Z,18.05
2018-05-10T02:41:50.999Z,18.05
2018-05-10T02:44:19.922Z,18.14
2018-05-10T02:46:48.521Z,18.05
2018-05-10T02:49:17.380Z,18.02
2018-05-10T02:51:45.859Z,18.03
2018-05-10T02:54:14.248Z,18.00
2018-05-10T02:56:42.899Z,17.99
2018-05-10T02:59:11.531Z,17.92
2018-05-10T03:01:40.263Z,17.87
2018-05-10T03:04:08.844Z,17.90
2018-05-10T03:06:37.281Z,17.92
2018-05-10T03:09:05.875Z,17.93
2018-05-10T03:11:34.348Z,17.86
2018-05-10T03:14:02.828Z,17.80
2018-05-10T03:16:31.270Z,17.77
2018-05-10T03:18:59.779Z,17.79
2018-05-10T03:21:28.278Z,17.82
2018-05-10T03:23:56.685Z,17.83
2018-05-10T03:26:25.283Z,17.82
2018-05-10T03:28:53.775Z,17.85
2018-05-10T03:31:22.215Z,17.74
2018-05-10T03:33:57.095Z,17.78
2018-05-10T03:36:25.680Z,17.66
2018-05-10T03:38:54.463Z,17.60
2018-05-10T03:41:23.021Z,17.63
2018-05-10T03:43:51.751Z,17.54
2018-05-10T03:46:20.390Z,17.50
2018-05-10T03:48:49.030Z,17.44
2018-05-10T03:51:17.495Z,17.41
2018-05-10T03:53:45.932Z,17.38
2018-05-10T03:56:14.657Z,17.34
2018-05-10T03:58:43.478Z,17.31
2018-05-10T04:04:16.503Z,17.01
2018-05-10T04:09:02.957Z,16.96
2018-05-10T04:11:31.383Z,16.84
2018-05-10T04:13:59.680Z,16.85
2018-05-10T04:16:27.994Z,16.95
2018-05-10T04:18:56.679Z,16.94
2018-05-10T04:21:25.147Z,16.87
2018-05-10T04:23:53.427Z,16.75
2018-05-10T04:26:21.747Z,16.84
2018-05-10T04:28:50.158Z,16.86
2018-05-10T04:31:18.490Z,16.92
2018-05-10T04:33:46.897Z,17.12
2018-05-10T04:36:15.211Z,17.15
2018-05-10T04:38:43.648Z,17.20
2018-05-10T04:41:11.963Z,17.39
2018-05-10T04:43:40.215Z,17.47
2018-05-10T04:46:08.511Z,17.48
2018-05-10T04:48:37.242Z,17.46
2018-05-10T04:51:05.550Z,17.42
2018-05-10T04:53:33.846Z,17.36
2018-05-10T04:56:02.144Z,17.38
2018-05-10T04:58:30.556Z,17.42
2018-05-10T05:00:58.999Z,17.52
2018-05-10T05:03:27.338Z,17.46
2018-05-10T05:05:55.697Z,17.43
2018-05-10T05:08:23.982Z,17.42
2018-05-10T05:10:52.306Z,17.44
2018-05-10T05:13:20.544Z,17.40
2018-05-10T05:15:48.846Z,17.50
2018-05-10T05:18:17.591Z,17.47
2018-05-10T05:20:46.029Z,17.57
2018-05-10T05:23:14.370Z,17.60
2018-05-10T05:25:42.647Z,17.77
2018-05-10T05:28:10.922Z,17.79
2018-05-10T05:30:39.334Z,17.68
2018-05-10T05:33:07.686Z,17.68
2018-05-10T05:35:36.036Z,17.70
2018-05-10T05:38:04.276Z,17.63
2018-05-10T05:40:32.648Z,17.68
2018-05-10T05:43:00.916Z,17.80
2018-05-10T05:45:29.203Z,17.77
2018-05-10T05:47:57.471Z,17.90
2018-05-10T05:50:26.086Z,17.99
2018-05-10T05:52:54.555Z,18.18
2018-05-10T05:55:22.919Z,18.28
2018-05-10T05:57:51.340Z,18.32
2018-05-10T06:00:19.692Z,18.45
2018-05-10T06:02:47.971Z,18.47
2018-05-10T06:05:16.257Z,18.55
2018-05-10T06:07:44.536Z,18.46
2018-05-10T06:10:12.835Z,18.93
2018-05-10T06:12:41.144Z,19.32
2018-05-10T06:15:09.543Z,19.41
2018-05-10T06:17:37.987Z,19.14
2018-05-10T06:20:06.492Z,19.13
2018-05-10T06:22:34.801Z,18.93
2018-05-10T06:25:03.072Z,18.98
2018-05-10T06:27:31.374Z,19.03
2018-05-10T06:29:59.630Z,19.11
2018-05-10T06:32:27.948Z,19.06
2018-05-10T06:34:56.331Z,19.24
2018-05-10T06:37:24.937Z,19.22
2018-05-10T06:39:53.242Z,19.25
2018-05-10T06:42:21.641Z,19.34
2018-05-10T06:44:50.057Z,19.49
2018-05-10T06:47:18.381Z,19.78
2018-05-10T06:49:46.821Z,20.08
2018-05-10T06:52:15.356Z,20.12
2018-05-10T06:54:43.873Z,20.24
2018-05-10T06:57:12.130Z,20.26
2018-05-10T06:59:40.451Z,20.24
2018-05-10T07:02:08.864Z,20.19
2018-05-10T07:04:37.098Z,20.27
2018-05-10T07:07:05.609Z,20.46
2018-05-10T07:09:34.397Z,20.28
2018-05-10T07:12:02.693Z,19.80
2018-05-10T07:14:32.990Z,19.75
2018-05-10T07:17:03.720Z,19.57
2018-05-10T07:19:34.083Z,19.72
2018-05-10T07:22:03.112Z,19.76
2018-05-10T07:24:32.536Z,19.74
2018-05-10T07:27:01.219Z,19.72
2018-05-10T07:29:29.661Z,20.03
2018-05-10T07:31:58.946Z,20.19
2018-05-10T07:34:27.242Z,20.24
2018-05-10T07:36:56.466Z,20.69
2018-05-10T07:39:26.057Z,20.47
2018-05-10T07:41:56.785Z,20.88
2018-05-10T07:44:25.502Z,20.85
2018-05-10T07:46:55.406Z,20.39
2018-05-10T07:49:24.102Z,20.61
2018-05-10T07:51:52.406Z,20.93
2018-05-10T07:54:20.680Z,21.47
2018-05-10T07:56:48.958Z,21.56
2018-05-10T07:59:17.398Z,21.72
2018-05-10T08:01:45.811Z,21.98
2018-05-10T08:04:14.172Z,22.19
2018-05-10T08:06:43.004Z,22.30
2018-05-10T08:09:11.752Z,22.20
2018-05-10T08:11:40.095Z,22.37
2018-05-10T08:14:08.381Z,22.68
2018-05-10T08:16:42.301Z,22.97
2018-05-10T08:19:18.578Z,23.08
2018-05-10T08:21:47.014Z,22.52
2018-05-10T08:24:16.096Z,22.87
2018-05-10T08:26:44.851Z,23.13
2018-05-10T08:29:13.158Z,22.95
2018-05-10T08:31:42.867Z,22.78
2018-05-10T08:34:12.862Z,23.14
2018-05-10T08:36:41.647Z,23.08
2018-05-10T08:39:09.908Z,23.45
2018-05-10T08:41:38.378Z,23.69
2018-05-10T08:44:06.934Z,23.83
2018-05-10T08:46:35.288Z,23.84
2018-05-10T08:49:03.551Z,23.98
2018-05-10T08:51:34.194Z,23.79
2018-05-10T08:54:04.565Z,24.20
2018-05-10T08:56:33.289Z,24.05
2018-05-10T08:59:01.777Z,24.34
2018-05-10T09:01:30.077Z,24.54
2018-05-10T09:03:58.340Z,24.38
2018-05-10T09:06:26.731Z,24.62
2018-05-10T09:08:55.305Z,24.75
2018-05-10T09:11:23.625Z,24.88
2018-05-10T09:13:51.940Z,24.81
2018-05-10T09:16:20.260Z,25.04
2018-05-10T09:18:48.534Z,24.98
2018-05-10T09:21:16.813Z,24.69
2018-05-10T09:23:45.068Z,25.03
2018-05-10T09:26:13.369Z,25.03
2018-05-10T09:28:41.648Z,25.04
2018-05-10T09:31:09.942Z,24.79
2018-05-10T09:33:38.194Z,25.21
2018-05-10T09:36:06.518Z,24.82
2018-05-10T09:38:34.972Z,25.06
2018-05-10T09:41:03.258Z,25.24
2018-05-10T09:43:31.731Z,25.40
2018-05-10T09:46:00.047Z,25.27
2018-05-10T09:48:28.382Z,25.50
2018-05-10T09:50:56.663Z,25.63
2018-05-10T09:53:24.957Z,25.70
2018-05-10T09:55:53.336Z,25.71
2018-05-10T09:58:21.658Z,25.27
2018-05-10T10:00:50.075Z,25.22
2018-05-10T10:03:18.456Z,25.75
2018-05-10T10:05:46.770Z,25.73
2018-05-10T10:08:15.306Z,25.84
2018-05-10T10:10:43.776Z,26.00
2018-05-10T10:13:12.430Z,26.12
2018-05-10T10:15:40.773Z,26.00
2018-05-10T10:18:09.056Z,26.07
2018-05-10T10:20:37.348Z,26.07
2018-05-10T10:23:05.617Z,26.22
2018-05-10T10:25:33.893Z,26.72
2018-05-10T10:28:03.000Z,27.06
2018-05-10T10:30:31.429Z,26.09
2018-05-10T10:32:59.928Z,26.96
2018-05-10T10:35:28.556Z,27.51
2018-05-10T10:37:56.844Z,27.82
2018-05-10T10:40:25.166Z,27.76
2018-05-10T10:42:53.422Z,27.37
2018-05-10T10:45:21.775Z,28.09
2018-05-10T10:47:50.094Z,28.46
2018-05-10T10:50:18.444Z,28.31
2018-05-10T10:52:46.719Z,28.24
2018-05-10T10:55:16.939Z,29.11
2018-05-10T10:57:46.138Z,28.28
2018-05-10T11:00:14.495Z,28.62
2018-05-10T11:02:42.928Z,28.65
2018-05-10T11:05:11.430Z,28.82
2018-05-10T11:07:39.699Z,29.07
2018-05-10T11:10:07.997Z,29.10
2018-05-10T11:12:36.286Z,28.97
2018-05-10T11:15:04.775Z,29.75
2018-05-10T11:17:33.053Z,29.79
2018-05-10T11:20:01.294Z,28.99
2018-05-10T11:22:29.668Z,29.89
2018-05-10T11:24:57.864Z,29.60
2018-05-10T11:27:26.199Z,29.71
2018-05-10T11:29:54.443Z,28.98
2018-05-10T11:32:22.761Z,29.42
2018-05-10T11:34:51.043Z,29.97
2018-05-10T11:37:19.367Z,29.84
2018-05-10T11:39:47.867Z,29.83
2018-05-10T11:42:16.303Z,30.57
2018-05-10T11:44:44.557Z,31.00
2018-05-10T11:47:12.871Z,31.84
2018-05-10T11:49:41.123Z,31.82
2018-05-10T11:52:09.446Z,31.58
2018-05-10T11:54:37.715Z,31.30
2018-05-10T11:57:06.150Z,30.73
2018-05-10T11:59:34.482Z,31.32
2018-05-10T12:02:03.039Z,30.63
2018-05-10T12:04:34.829Z,31.15
2018-05-10T12:07:03.607Z,29.76
2018-05-10T12:09:31.958Z,29.10
2018-05-10T12:12:01.135Z,29.95
2018-05-10T12:14:29.423Z,29.61
2018-05-10T12:16:59.230Z,30.39
2018-05-10T12:19:27.684Z,30.39
2018-05-10T12:21:56.002Z,30.36
2018-05-10T12:24:24.368Z,31.45
2018-05-10T12:26:52.673Z,29.30
2018-05-10T12:29:21.281Z,28.34
2018-05-10T12:31:49.558Z,28.80
2018-05-10T12:34:17.922Z,30.16
2018-05-10T12:36:46.222Z,31.00
2018-05-10T12:39:14.590Z,31.27
2018-05-10T12:41:43.092Z,29.11
2018-05-10T12:44:11.429Z,28.53
2018-05-10T12:46:39.710Z,31.59
2018-05-10T12:49:07.983Z,33.02
2018-05-10T12:51:36.263Z,33.23
2018-05-10T12:54:04.548Z,33.02
2018-05-10T12:56:32.906Z,33.08
2018-05-10T12:59:01.334Z,33.62
2018-05-10T13:01:29.639Z,32.68
2018-05-10T13:03:57.927Z,31.16
2018-05-10T13:06:26.223Z,30.35
2018-05-10T13:08:54.514Z,30.42
2018-05-10T13:11:22.796Z,29.91
2018-05-10T13:13:51.097Z,30.57
2018-05-10T13:16:19.389Z,31.84
2018-05-10T13:18:47.686Z,31.98
2018-05-10T13:21:15.999Z,32.98
2018-05-10T13:23:44.285Z,34.64
2018-05-10T13:26:12.559Z,34.66
2018-05-10T13:28:40.841Z,33.92
2018-05-10T13:31:09.171Z,35.61
2018-05-10T13:33:38.012Z,35.12
2018-05-10T13:36:06.311Z,35.38
2018-05-10T13:38:35.158Z,36.13
2018-05-10T13:41:03.476Z,35.66
2018-05-10T13:43:32.077Z,35.81
2018-05-10T13:46:00.550Z,36.33
2018-05-10T13:48:28.806Z,33.75
2018-05-10T13:50:57.102Z,32.51
2018-05-10T13:53:25.363Z,32.50
2018-05-10T13:55:53.652Z,32.00
2018-05-10T13:58:21.933Z,29.98
2018-05-10T14:00:50.343Z,30.09
2018-05-10T14:03:18.593Z,28.89
2018-05-10T14:05:46.873Z,28.37
2018-05-10T14:08:15.246Z,28.77
2018-05-10T14:10:43.524Z,28.39
2018-05-10T14:13:12.179Z,29.01
2018-05-10T14:15:40.501Z,29.82
2018-05-10T14:18:08.775Z,29.90
2018-05-10T14:20:37.126Z,30.12
2018-05-10T14:23:05.405Z,31.14
2018-05-10T14:25:33.691Z,31.24
2018-05-10T14:28:02.331Z,31.49
2018-05-10T14:30:30.632Z,30.89
2018-05-10T14:32:59.071Z,28.83
2018-05-10T14:35:34.131Z,28.28
2018-05-10T14:38:02.599Z,27.49
2018-05-10T14:40:30.928Z,27.27
2018-05-10T14:42:59.207Z,26.95
2018-05-10T14:45:27.488Z,26.69
2018-05-10T14:47:55.797Z,28.78
2018-05-10T14:50:24.085Z,28.93
2018-05-10T14:52:52.402Z,27.35
2018-05-10T14:55:20.713Z,26.84
2018-05-10T14:57:49.104Z,26.67
2018-05-10T15:00:17.420Z,26.47
2018-05-10T15:02:45.675Z,25.84
2018-05-10T15:05:14.186Z,25.44
2018-05-10T15:07:42.487Z,25.27
2018-05-10T15:10:10.819Z,30.07
2018-05-10T15:12:39.110Z,28.95
2018-05-10T15:15:07.686Z,27.21
2018-05-10T15:17:35.988Z,26.52
2018-05-10T15:20:04.556Z,26.83
2018-05-10T15:22:32.824Z,27.18
2018-05-10T15:25:01.484Z,26.30
2018-05-10T15:27:29.796Z,25.93
2018-05-10T15:29:58.093Z,25.71
2018-05-10T15:32:26.391Z,25.29
2018-05-10T15:34:54.686Z,25.46
2018-05-10T15:37:23.266Z,25.66
2018-05-10T15:39:51.769Z,25.65
2018-05-10T15:42:20.066Z,25.29
2018-05-10T15:44:48.330Z,25.22
2018-05-10T15:47:16.618Z,25.12
2018-05-10T15:49:44.927Z,25.04
2018-05-10T15:52:13.199Z,24.83
2018-05-10T15:54:42.867Z,22.95
2018-05-10T15:57:11.364Z,21.40
2018-05-10T15:59:39.639Z,21.14
2018-05-10T16:02:08.277Z,20.80
2018-05-10T16:04:36.757Z,21.45
2018-05-10T16:07:05.079Z,21.27
2018-05-10T16:09:36.334Z,21.38
2018-05-10T16:12:05.894Z,21.11
2018-05-10T16:14:35.014Z,20.39
2018-05-10T16:17:04.348Z,20.46
2018-05-10T16:19:35.834Z,20.43
2018-05-10T16:22:08.282Z,20.40
2018-05-10T16:24:38.052Z,20.01
2018-05-10T16:27:07.820Z,19.29
2018-05-10T16:29:38.446Z,19.11
2018-05-10T16:32:06.946Z,19.26
2018-05-10T16:34:35.374Z,19.22
2018-05-10T16:37:03.887Z,19.08
2018-05-10T16:39:32.339Z,18.92
2018-05-10T16:42:00.604Z,18.62
2018-05-10T16:44:28.917Z,18.64
2018-05-10T16:46:57.247Z,18.60
2018-05-10T16:49:25.614Z,18.63
2018-05-10T16:51:54.119Z,18.73
2018-05-10T16:54:22.496Z,19.15
2018-05-10T16:56:51.818Z,19.07
2018-05-10T16:59:20.994Z,19.20
2018-05-10T17:01:49.571Z,19.19
2018-05-10T17:04:17.867Z,18.98
2018-05-10T17:06:46.213Z,19.23
2018-05-10T17:09:14.514Z,19.12
2018-05-10T17:11:42.816Z,19.35
2018-05-10T17:14:11.135Z,19.48
2018-05-10T17:16:39.545Z,19.43
2018-05-10T17:19:07.825Z,19.50
2018-05-10T17:21:36.150Z,19.29
2018-05-10T17:24:04.469Z,19.34
2018-05-10T17:26:32.855Z,19.14
2018-05-10T17:29:01.196Z,18.94
2018-05-10T17:31:29.537Z,18.90
2018-05-10T17:33:59.230Z,19.18
2018-05-10T17:36:28.731Z,19.08
2018-05-10T17:38:57.770Z,19.18
2018-05-10T17:41:27.158Z,18.92
2018-05-10T17:43:56.807Z,18.88
2018-05-10T17:46:25.101Z,18.95
2018-05-10T17:48:53.353Z,19.17
2018-05-10T17:51:21.639Z,19.21
2018-05-10T17:53:49.886Z,19.08
2018-05-10T17:56:18.400Z,19.15
2018-05-10T17:58:46.696Z,19.19
2018-05-10T18:01:15.183Z,19.02
2018-05-10T18:03:43.517Z,19.17
2018-05-10T18:06:11.874Z,19.29
2018-05-10T18:08:40.354Z,19.10
2018-05-10T18:11:08.655Z,18.88
2018-05-10T18:13:37.005Z,18.78
2018-05-10T18:16:05.323Z,18.57
2018-05-10T18:18:33.583Z,18.59
2018-05-10T18:21:02.883Z,18.64
2018-05-10T18:23:31.567Z,18.60
2018-05-10T18:25:59.783Z,18.44
2018-05-10T18:28:28.243Z,18.26
2018-05-10T18:30:56.726Z,18.30
2018-05-10T18:33:25.491Z,18.10
2018-05-10T18:35:53.788Z,18.10
2018-05-10T18:38:22.066Z,17.98
2018-05-10T18:40:50.435Z,17.97
2018-05-10T18:43:18.875Z,17.89
2018-05-10T18:45:47.314Z,17.92
2018-05-10T18:48:15.714Z,17.94
2018-05-10T18:50:44.306Z,17.92
2018-05-10T18:53:12.664Z,17.84
2018-05-10T18:55:40.963Z,17.93
2018-05-10T18:58:09.381Z,17.96
2018-05-10T19:00:37.691Z,18.02
2018-05-10T19:03:05.947Z,17.79
2018-05-10T19:05:34.495Z,17.66
2018-05-10T19:08:02.878Z,17.65
2018-05-10T19:10:31.351Z,17.63
2018-05-10T19:12:59.655Z,17.63
2018-05-10T19:15:27.971Z,17.54
2018-05-10T19:17:56.263Z,17.48
2018-05-10T19:20:24.568Z,17.42
2018-05-10T19:22:52.959Z,17.30
2018-05-10T19:25:21.285Z,17.37
2018-05-10T19:27:50.314Z,17.33
2018-05-10T19:30:18.734Z,17.36
2018-05-10T19:32:47.086Z,17.31
2018-05-10T19:35:15.502Z,17.40
2018-05-10T19:37:43.802Z,17.38
2018-05-10T19:40:12.214Z,17.28
2018-05-10T19:42:40.550Z,17.25
2018-05-10T19:45:09.194Z,17.25
2018-05-10T19:47:37.886Z,17.18
2018-05-10T19:50:06.278Z,17.24
2018-05-10T19:52:34.746Z,17.26
2018-05-10T19:55:03.021Z,17.26
2018-05-10T19:57:31.518Z,17.25
2018-05-10T19:59:59.958Z,17.24
2018-05-10T20:02:28.270Z,17.17
2018-05-10T20:04:56.700Z,17.25
2018-05-10T20:07:25.030Z,17.18
2018-05-10T20:09:53.598Z,17.13
2018-05-10T20:12:22.007Z,17.11
2018-05-10T20:14:50.376Z,17.06
2018-05-10T20:17:18.796Z,17.09
2018-05-10T20:19:47.130Z,17.11
2018-05-10T20:22:15.426Z,17.06
2018-05-10T20:24:43.713Z,17.13
2018-05-10T20:27:12.186Z,17.23
2018-05-10T20:29:40.545Z,17.15
2018-05-10T20:32:09.106Z,17.11
2018-05-10T20:34:37.482Z,17.09
2018-05-10T20:37:05.782Z,17.11
2018-05-10T20:39:34.234Z,17.04
2018-05-10T20:42:02.558Z,17.07
2018-05-10T20:44:30.848Z,17.03
2018-05-10T20:46:59.301Z,16.92
2018-05-10T20:49:27.761Z,16.81
2018-05-10T20:51:56.256Z,16.91
2018-05-10T20:54:24.515Z,16.87
2018-05-10T20:56:52.888Z,16.87
2018-05-10T20:59:21.175Z,16.89
2018-05-10T21:01:49.501Z,16.93
2018-05-10T21:04:17.871Z,16.92
2018-05-10T21:06:46.203Z,16.96
2018-05-10T21:09:14.586Z,17.02
2018-05-10T21:11:43.082Z,17.05
2018-05-10T21:14:11.371Z,17.09
2018-05-10T21:16:39.832Z,16.97
2018-05-10T21:19:08.117Z,16.97
2018-05-10T21:21:36.410Z,17.00
2018-05-10T21:24:04.666Z,16.88
2018-05-10T21:26:33.152Z,16.90
2018-05-10T21:29:01.618Z,16.75
2018-05-10T21:31:29.901Z,16.73
2018-05-10T21:33:58.452Z,16.61
2018-05-10T21:36:26.674Z,16.71
2018-05-10T21:38:54.925Z,16.62
2018-05-10T21:41:23.219Z,16.60
2018-05-10T21:43:51.653Z,16.43
2018-05-10T21:46:20.110Z,16.57
2018-05-10T21:48:48.362Z,16.53
2018-05-10T21:51:16.654Z,16.44
2018-05-10T21:53:44.961Z,16.30
2018-05-10T21:56:13.263Z,16.40
2018-05-10T21:58:41.730Z,16.38
2018-05-10T22:01:12.269Z,16.45
2018-05-10T22:03:40.739Z,16.49
2018-05-10T22:06:09.079Z,16.44
2018-05-10T22:08:37.462Z,16.42
2018-05-10T22:11:05.942Z,16.43
2018-05-10T22:13:34.238Z,16.42
2018-05-10T22:16:02.710Z,16.38
2018-05-10T22:18:31.020Z,16.38
2018-05-10T22:20:59.313Z,16.32
2018-05-10T22:23:27.579Z,16.42
2018-05-10T22:25:55.854Z,16.34
2018-05-10T22:28:24.135Z,16.29
2018-05-10T22:30:52.455Z,16.29
2018-05-10T22:33:20.882Z,16.19
2018-05-10T22:35:49.189Z,16.20
2018-05-10T22:38:17.634Z,16.11
2018-05-10T22:40:45.939Z,16.10
2018-05-10T22:43:14.399Z,16.07
2018-05-10T22:45:42.699Z,16.15
2018-05-10T22:48:10.977Z,16.04
2018-05-10T22:50:39.575Z,15.97
2018-05-10T22:53:07.890Z,15.93
2018-05-10T22:55:36.206Z,15.80
2018-05-10T22:58:05.318Z,15.77
2018-05-10T23:00:33.790Z,15.71
2018-05-10T23:03:02.039Z,15.79
2018-05-10T23:05:32.427Z,15.69
2018-05-10T23:08:00.838Z,15.72
2018-05-10T23:10:29.939Z,15.79
2018-05-10T23:12:58.616Z,15.83
2018-05-10T23:15:26.886Z,15.75
2018-05-10T23:17:55.162Z,15.78
2018-05-10T23:20:23.442Z,15.75
2018-05-10T23:22:51.714Z,15.70
2018-05-10T23:25:20.042Z,15.79
2018-05-10T23:27:48.353Z,15.68
2018-05-10T23:30:16.650Z,15.63
2018-05-10T23:32:45.022Z,15.69
2018-05-10T23:35:13.343Z,15.62
2018-05-10T23:37:41.785Z,15.60
2018-05-10T23:40:10.103Z,15.60
2018-05-10T23:42:38.372Z,15.44
2018-05-10T23:45:06.821Z,15.50
2018-05-10T23:47:35.102Z,15.58
2018-05-10T23:50:03.375Z,15.35
2018-05-10T23:52:31.670Z,15.42
2018-05-10T23:54:59.991Z,15.37
2018-05-10T23:57:28.395Z,15.44
2018-05-10T23:59:56.756Z,15.40
